createdAt,value
2023-01-12T00:02:12.172Z,12.03
2023-01-12T00:04:39.132Z,7.80
2023-01-12T00:07:06.950Z,11.13
2023-01-12T00:09:33.719Z,11.13
2023-01-12T00:12:01.762Z,6.30
2023-01-12T00:14:28.537Z,8.60
2023-01-12T00:16:55.393Z,7.57
2023-01-12T00:19:23.105Z,8.20
2023-01-12T00:21:58.507Z,6.43
2023-01-12T00:24:27.229Z,9.60
2023-01-12T00:26:55.159Z,9.10
2023-01-12T00:29:22.678Z,8.87
2023-01-12T00:31:49.969Z,7.50
2023-01-12T00:34:16.937Z,8.17
2023-01-12T00:36:45.460Z,9.23
2023-01-12T00:39:12.683Z,9.03
2023-01-12T00:41:58.441Z,7.10
2023-01-12T00:44:43.448Z,7.83
2023-01-12T00:47:10.283Z,5.50
2023-01-12T00:49:38.219Z,7.77
2023-01-12T00:52:07.578Z,7.10
2023-01-12T00:54:34.761Z,6.20
2023-01-12T00:57:02.076Z,8.33
2023-01-12T00:59:29.468Z,8.53
2023-01-12T01:01:56.101Z,5.60
2023-01-12T01:04:23.663Z,8.47
2023-01-12T01:06:50.281Z,7.33
2023-01-12T01:09:17.695Z,9.00
2023-01-12T01:11:44.237Z,7.33
2023-01-12T01:14:10.766Z,10.67
2023-01-12T01:16:37.514Z,7.20
2023-01-12T01:19:05.091Z,7.30
2023-01-12T01:21:32.332Z,9.30
2023-01-12T01:23:59.348Z,5.97
2023-01-12T01:26:26.889Z,9.77
2023-01-12T01:28:54.004Z,8.37
2023-01-12T01:31:22.996Z,8.10
2023-01-12T01:33:50.463Z,9.73
2023-01-12T01:36:18.259Z,8.70
2023-01-12T01:38:45.992Z,12.63
2023-01-12T01:41:18.954Z,9.83
2023-01-12T01:43:53.493Z,6.90
2023-01-12T01:46:32.945Z,11.23
2023-01-12T01:49:23.547Z,7.57
2023-01-12T01:51:51.405Z,9.27
2023-01-12T01:54:18.036Z,6.67
2023-01-12T01:56:44.869Z,9.03
2023-01-12T01:59:15.974Z,9.53
2023-01-12T02:01:43.244Z,12.03
2023-01-12T02:04:10.839Z,8.07
2023-01-12T02:06:38.010Z,8.40
2023-01-12T02:09:09.377Z,12.50
2023-01-12T02:11:54.113Z,10.23
2023-01-12T02:14:39.397Z,13.13
2023-01-12T02:17:17.097Z,12.73
2023-01-12T02:20:09.121Z,9.87
2023-01-12T02:23:39.020Z,11.23
2023-01-12T02:26:28.027Z,11.30
2023-01-12T02:29:32.139Z,12.43
2023-01-12T02:32:06.581Z,13.63
2023-01-12T02:34:41.034Z,8.30
2023-01-12T02:37:13.982Z,11.43
2023-01-12T02:39:44.721Z,10.60
2023-01-12T02:42:38.027Z,9.00
2023-01-12T02:45:19.047Z,11.53
2023-01-12T02:47:50.668Z,9.07
2023-01-12T02:50:23.972Z,15.63
2023-01-12T02:53:14.131Z,12.47
2023-01-12T02:55:43.093Z,12.33
2023-01-12T02:58:13.577Z,9.67
2023-01-12T03:00:41.540Z,16.70
2023-01-12T03:03:10.928Z,15.50
2023-01-12T03:05:39.708Z,13.10
2023-01-12T03:08:07.255Z,13.20
2023-01-12T03:10:44.617Z,13.73
2023-01-12T03:13:32.367Z,12.70
2023-01-12T03:16:02.574Z,10.43
2023-01-12T03:18:34.168Z,7.30
2023-01-12T03:21:04.710Z,12.40
2023-01-12T03:23:37.264Z,12.80
2023-01-12T03:26:06.772Z,14.47
2023-01-12T03:28:36.341Z,15.70
2023-01-12T03:31:08.564Z,12.60
2023-01-12T03:33:42.316Z,9.47
2023-01-12T03:36:19.394Z,15.40
2023-01-12T03:38:55.328Z,11.20
2023-01-12T03:41:28.663Z,11.20
2023-01-12T03:46:56.241Z,14.30
2023-01-12T03:49:31.601Z,9.17
2023-01-12T03:52:00.898Z,11.37
2023-01-12T03:54:42.500Z,10.67
2023-01-12T03:57:26.185Z,10.90
2023-01-12T04:03:17.574Z,9.50
2023-01-12T04:06:13.018Z,18.23
2023-01-12T04:08:40.337Z,8.93
2023-01-12T04:11:22.603Z,8.33
2023-01-12T04:13:49.601Z,11.37
2023-01-12T04:16:16.799Z,12.87
2023-01-12T04:18:47.659Z,11.27
2023-01-12T04:21:38.806Z,11.60
2023-01-12T04:27:03.504Z,7.43
2023-01-12T04:29:40.751Z,7.13
2023-01-12T04:32:07.718Z,5.07
2023-01-12T04:34:51.686Z,7.13
2023-01-12T04:43:39.302Z,9.40
2023-01-12T04:46:10.903Z,9.73
2023-01-12T04:58:08.528Z,7.77
2023-01-12T05:01:10.777Z,7.77
2023-01-12T05:07:07.155Z,9.30
2023-01-12T05:12:36.634Z,11.17
2023-01-12T05:18:10.661Z,7.03
2023-01-12T05:27:00.068Z,8.60
2023-01-12T05:29:27.729Z,10.17
2023-01-12T05:35:16.338Z,6.33
2023-01-12T05:40:45.659Z,4.87
2023-01-12T06:03:42.508Z,8.93
2023-01-12T06:09:20.231Z,7.30
2023-01-12T06:21:03.895Z,8.03
2023-01-12T06:29:49.218Z,7.40
2023-01-12T06:35:01.619Z,8.97
2023-01-12T06:40:36.851Z,8.80
2023-01-12T06:43:05.135Z,8.37
2023-01-12T06:45:33.083Z,8.70
2023-01-12T06:48:10.009Z,8.50
2023-01-12T06:50:38.065Z,7.17
2023-01-12T07:13:53.389Z,5.33
2023-01-12T07:25:50.725Z,5.53
2023-01-12T07:31:25.442Z,5.50
2023-01-12T07:33:53.159Z,4.73
2023-01-12T07:36:34.382Z,6.30
2023-01-12T08:00:46.255Z,6.63
2023-01-12T08:09:48.549Z,3.40
2023-01-12T08:15:13.207Z,2.47
2023-01-12T08:26:39.537Z,3.07
2023-01-12T08:29:08.391Z,5.70
2023-01-12T08:31:36.278Z,3.90
2023-01-12T08:43:35.197Z,2.70
2023-01-12T08:46:07.047Z,3.17
2023-01-12T09:06:27.404Z,4.10
2023-01-12T09:08:59.035Z,2.60
2023-01-12T09:14:31.083Z,1.70
2023-01-12T09:19:57.655Z,3.27
2023-01-12T09:22:27.666Z,2.83
2023-01-12T09:25:05.017Z,1.90
2023-01-12T09:27:59.495Z,4.00
2023-01-12T09:30:26.472Z,3.60
2023-01-12T09:32:54.579Z,3.20
2023-01-12T09:35:21.718Z,2.10
2023-01-12T09:37:49.275Z,4.00
2023-01-12T09:40:16.843Z,4.23
2023-01-12T09:43:06.700Z,2.93
2023-01-12T09:45:52.252Z,3.23
2023-01-12T09:48:22.325Z,4.30
2023-01-12T09:53:58.492Z,3.60
2023-01-12T09:56:28.492Z,2.83
2023-01-12T09:59:13.229Z,3.90
2023-01-12T10:01:40.295Z,3.80
2023-01-12T10:04:07.877Z,2.13
2023-01-12T10:06:35.912Z,4.73
2023-01-12T10:09:04.853Z,2.40
2023-01-12T10:11:37.281Z,3.33
2023-01-12T10:19:47.178Z,2.93
2023-01-12T10:25:21.723Z,4.60
2023-01-12T10:30:53.186Z,2.00
2023-01-12T10:33:22.700Z,3.43
2023-01-12T10:35:51.862Z,3.47
2023-01-12T10:38:21.598Z,5.10
2023-01-12T10:41:02.218Z,4.20
2023-01-12T10:43:33.136Z,2.70
2023-01-12T10:46:05.448Z,2.00
2023-01-12T10:48:33.020Z,1.33
2023-01-12T10:51:01.402Z,1.77
2023-01-12T10:53:30.304Z,2.17
2023-01-12T10:55:58.538Z,1.20
2023-01-12T10:58:27.478Z,0.90
2023-01-12T11:00:54.734Z,2.70
2023-01-12T11:03:30.609Z,1.10
2023-01-12T11:06:14.238Z,1.83
2023-01-12T11:08:41.483Z,1.17
2023-01-12T11:11:23.632Z,2.00
2023-01-12T11:17:25.742Z,3.07
2023-01-12T11:19:54.469Z,3.87
2023-01-12T11:22:26.543Z,1.63
2023-01-12T11:24:56.650Z,1.57
2023-01-12T11:27:26.578Z,2.33
2023-01-12T11:30:16.569Z,1.37
2023-01-12T11:32:44.783Z,1.90
2023-01-12T11:35:21.553Z,1.73
2023-01-12T11:37:48.679Z,1.10
2023-01-12T11:40:21.569Z,2.30
2023-01-12T11:43:08.420Z,2.50
2023-01-12T11:45:39.425Z,2.70
2023-01-12T11:48:11.421Z,1.60
2023-01-12T11:50:38.873Z,1.03
2023-01-12T11:53:06.729Z,2.37
2023-01-12T11:55:46.044Z,0.80
2023-01-12T11:58:17.777Z,1.97
2023-01-12T12:00:49.823Z,1.13
2023-01-12T12:03:27.682Z,3.07
2023-01-12T12:05:57.980Z,1.17
2023-01-12T12:11:26.069Z,2.40
2023-01-12T12:14:00.037Z,1.10
2023-01-12T12:16:37.793Z,5.50
2023-01-12T12:19:18.178Z,2.60
2023-01-12T12:21:49.337Z,3.77
2023-01-12T12:24:26.498Z,1.93
2023-01-12T12:26:56.610Z,1.20
2023-01-12T12:29:30.599Z,1.03
2023-01-12T12:35:12.256Z,2.97
2023-01-12T12:37:43.372Z,2.00
2023-01-12T12:40:14.543Z,0.90
2023-01-12T12:45:56.489Z,1.20
2023-01-12T12:48:26.612Z,1.67
2023-01-12T12:50:57.666Z,4.70
2023-01-12T12:53:26.682Z,3.60
2023-01-12T12:55:54.509Z,0.90
2023-01-12T12:58:39.360Z,0.83
2023-01-12T13:01:30.384Z,2.47
2023-01-12T13:03:59.434Z,0.70
2023-01-12T13:06:27.520Z,1.10
2023-01-12T13:08:55.059Z,1.03
2023-01-12T13:11:41.951Z,0.97
2023-01-12T13:14:18.607Z,2.53
2023-01-12T13:16:46.364Z,1.23
2023-01-12T13:19:14.952Z,1.53
2023-01-12T13:24:45.963Z,2.57
2023-01-12T13:27:31.596Z,0.80
2023-01-12T13:30:13.414Z,1.50
2023-01-12T13:32:42.376Z,1.10
2023-01-12T13:38:18.951Z,1.73
2023-01-12T13:40:55.890Z,2.00
2023-01-12T13:52:57.004Z,1.47
2023-01-12T13:58:21.749Z,1.30
2023-01-12T14:00:53.788Z,2.93
2023-01-12T14:18:27.467Z,2.03
2023-01-12T14:57:39.934Z,1.03
2023-01-12T15:00:08.489Z,2.30
2023-01-12T15:02:36.802Z,1.40
2023-01-12T15:23:44.650Z,2.47
2023-01-12T15:38:27.342Z,1.63
2023-01-12T15:40:54.359Z,2.13
2023-01-12T15:43:22.213Z,2.93
2023-01-12T15:46:17.831Z,1.60
2023-01-12T15:48:44.784Z,2.17
2023-01-12T15:51:13.467Z,1.60
2023-01-12T18:52:46.829Z,2.33
2023-01-12T18:55:13.820Z,2.57
2023-01-12T18:57:40.719Z,3.97
2023-01-12T19:00:14.752Z,2.47
2023-01-12T19:02:41.803Z,1.53
2023-01-12T19:05:19.858Z,2.87
2023-01-12T19:13:41.714Z,2.30
2023-01-12T19:20:20.715Z,1.77
2023-01-12T19:23:34.915Z,3.13
2023-01-12T19:30:42.142Z,2.13
2023-01-12T20:25:43.980Z,4.37
2023-01-12T20:28:31.931Z,3.13
2023-01-12T20:48:51.519Z,4.47
2023-01-12T20:51:20.643Z,1.80
2023-01-12T20:53:47.597Z,2.40
2023-01-12T20:56:15.311Z,2.63
2023-01-12T20:58:43.328Z,3.30
2023-01-12T21:01:11.353Z,1.70
